KCGI/CGI METAR and TAF weather

Enter ICAO airport designator
Station Type Date Time Source
KCGI METAR 2019/06/16 05:53 UTC NOAA

KCGI 160553Z AUTO 00000KT 10SM CLR 23/19 A2985 RMK AO2 SLP105 T02330194 10289 20228 403060200 55001


Station Type Date Time Source
KCGI Decoded METAR 2019/06/16 05:53 UTC NOAA

CAPE GIRARDEAU REGIONAL, MO, United States (KCGI) 37-14N 089-35W 102M
Jun 16, 2019 - 01:53 AM EDT / 2019.06.16 0553 UTC
Wind: Calm:0
Visibility: 10 mile(s):0
Sky conditions: clear
Temperature: 73.9 F (23.3 C)
Dew Point: 66.9 F (19.4 C)
Relative Humidity: 78%
Pressure (altimeter): 29.85 in. Hg (1010 hPa)
Pressure tendency: 0.00 inches (0.1 hPa) lower than three hours ago
ob: KCGI 160553Z AUTO 00000KT 10SM CLR 23/19 A2985 RMK AO2 SLP105 T02330194 10289 20228 403060200 55001
cycle: 6

Station Type Date Time Source
KCGI TAF 2019/06/16 06:22 UTC NOAA

TAF KCGI 160520Z 1606/1706 20009KT P6SM FEW045 SCT200
FM160900 21008KT P6SM VCSH SCT040 BKN150 WS020/23040KT
FM161300 22010G20KT P6SM VCSH SCT028 BKN200
FM170000 21007KT P6SM SCT050 BKN100

Example: see airport list